Time;durP1;ratioP1;P1;durP2;ratioP2;P2;SDS_P1;SDS_P2;PMS_P1;PMS_P2;Temp;Humidity;BMP_temperature;BMP_pressure;BME280_temperature;BME280_humidity;BME280_pressure;Samples;Min_cycle;Max_cycle;Signal;HPM_P1;HPM_P2
2022/09/29 00:00:52;;;;;;;;;;;8.00;99.90;;;;;;5054614;28;19920;-77
2022/09/29 00:03:18;;;;;;;;;;;8.10;99.90;;;;;;5060459;28;19916;-78
2022/09/29 00:05:50;;;;;;;;;;;8.20;99.90;;;;;;5055262;28;20001;-78
2022/09/29 00:08:17;;;;;;;;;;;8.20;99.90;;;;;;5058652;28;20286;-78
2022/09/29 00:10:42;;;;;;;;;;;8.10;99.90;;;;;;5060458;28;20405;-77
2022/09/29 00:13:08;;;;;;;;;;;8.10;99.90;;;;;;5056576;28;20000;-78
2022/09/29 00:15:35;;;;;;;;;;;8.10;99.90;;;;;;5046941;28;19913;-78
2022/09/29 00:18:00;;;;;;;;;;;8.00;99.90;;;;;;5059952;28;19935;-78
2022/09/29 00:20:26;;;;;;;;;;;8.10;99.90;;;;;;5054981;28;20363;-78
2022/09/29 00:22:51;;;;;;;;;;;8.10;99.90;;;;;;5058828;28;19924;-78
2022/09/29 00:25:17;;;;;;;;;;;8.10;99.90;;;;;;5062647;28;19920;-78
2022/09/29 00:27:43;;;;;;;;;;;8.10;99.90;;;;;;5055120;28;20392;-78
2022/09/29 00:30:09;;;;;;;;;;;8.20;99.90;;;;;;5053404;28;19916;-78
2022/09/29 00:32:35;;;;;;;;;;;8.10;99.90;;;;;;5080149;28;19971;-78
2022/09/29 00:35:00;;;;;;;;;;;8.20;99.90;;;;;;5077061;28;19963;-78
2022/09/29 00:37:26;;;;;;;;;;;8.20;99.90;;;;;;5075380;28;20457;-78
2022/09/29 00:39:52;;;;;;;;;;;8.10;99.90;;;;;;5084117;28;20298;-78
2022/09/29 00:42:19;;;;;;;;;;;8.10;99.90;;;;;;5076391;28;20432;-78
2022/09/29 00:44:58;;;;;;;;;;;8.10;99.90;;;;;;5078286;28;19951;-78
2022/09/29 00:47:24;;;;;;;;;;;8.00;99.90;;;;;;5087557;28;19920;-78
2022/09/29 00:50:03;;;;;;;;;;;7.90;99.90;;;;;;5076370;28;19921;-78
2022/09/29 00:52:32;;;;;;;;;;;8.00;99.90;;;;;;5078841;28;19917;-77
2022/09/29 00:55:06;;;;;;;;;;;8.00;99.90;;;;;;5081120;28;19963;-78
2022/09/29 00:57:35;;;;;;;;;;;7.90;99.90;;;;;;5075831;28;19919;-78
2022/09/29 01:00:00;;;;;;;;;;;7.90;99.90;;;;;;5080406;28;19916;-78
2022/09/29 01:02:26;;;;;;;;;;;7.90;99.90;;;;;;5080641;28;20697;-78
2022/09/29 01:04:52;;;;;;;;;;;8.00;99.90;;;;;;5080729;28;20007;-77
2022/09/29 01:07:20;;;;;;;;;;;8.00;99.90;;;;;;5077988;28;19966;-78
2022/09/29 01:09:46;;;;;;;;;;;8.00;99.90;;;;;;5083442;28;20343;-78
2022/09/29 01:12:11;;;;;;;;;;;7.90;99.90;;;;;;5079404;28;19912;-78
2022/09/29 01:14:37;;;;;;;;;;;7.90;99.90;;;;;;5082721;28;19930;-77
2022/09/29 01:17:03;;;;;;;;;;;7.80;99.90;;;;;;5084253;28;19923;-78
2022/09/29 01:19:36;;;;;;;;;;;7.80;99.90;;;;;;5082230;28;19913;-78
2022/09/29 01:22:07;;;;;;;;;;;7.80;99.90;;;;;;5076755;28;20404;-78
2022/09/29 01:24:38;;;;;;;;;;;7.90;99.90;;;;;;5080668;28;19963;-78
2022/09/29 01:27:04;;;;;;;;;;;7.90;99.90;;;;;;5079351;28;19919;-78
2022/09/29 01:29:44;;;;;;;;;;;7.80;99.90;;;;;;5076443;28;19920;-78
2022/09/29 01:32:29;;;;;;;;;;;7.70;99.90;;;;;;5066525;28;20638;-78
2022/09/29 01:34:54;;;;;;;;;;;7.70;99.90;;;;;;5059030;28;19921;-78
2022/09/29 01:37:25;;;;;;;;;;;7.50;99.90;;;;;;5050548;28;20115;-78
2022/09/29 01:39:58;;;;;;;;;;;7.60;99.90;;;;;;5064477;28;20371;-78
2022/09/29 01:42:28;;;;;;;;;;;7.60;99.90;;;;;;5056438;28;20520;-78
2022/09/29 01:45:23;;;;;;;;;;;7.50;99.90;;;;;;5058558;28;19913;-78
2022/09/29 01:47:51;;;;;;;;;;;7.50;99.90;;;;;;5045614;28;19917;-78
2022/09/29 01:50:37;;;;;;;;;;;7.50;99.90;;;;;;5057651;28;19999;-78
2022/09/29 01:53:11;;;;;;;;;;;7.40;99.90;;;;;;5061297;28;20224;-78
2022/09/29 01:55:43;;;;;;;;;;;7.40;99.90;;;;;;5062541;28;20366;-78
2022/09/29 01:58:11;;;;;;;;;;;7.40;99.90;;;;;;5048818;28;19913;-78
2022/09/29 02:00:42;;;;;;;;;;;7.30;99.90;;;;;;5058975;28;19920;-78
2022/09/29 02:03:26;;;;;;;;;;;7.30;99.90;;;;;;5056492;28;20282;-77
2022/09/29 02:05:54;;;;;;;;;;;7.50;99.90;;;;;;5059257;28;19913;-78
2022/09/29 02:08:19;;;;;;;;;;;7.50;99.90;;;;;;5061385;28;19927;-78
2022/09/29 02:10:55;;;;;;;;;;;7.40;99.90;;;;;;5059547;28;19920;-78
2022/09/29 02:13:22;;;;;;;;;;;7.40;99.90;;;;;;5051453;28;20023;-78
2022/09/29 02:15:49;;;;;;;;;;;7.30;99.90;;;;;;5056101;28;19921;-78
2022/09/29 02:18:20;;;;;;;;;;;7.30;99.90;;;;;;5058606;28;20125;-78
2022/09/29 02:20:46;;;;;;;;;;;7.40;99.90;;;;;;5056843;28;19916;-78
2022/09/29 02:23:12;;;;;;;;;;;7.40;99.90;;;;;;5048373;28;19970;-78
2022/09/29 02:25:40;;;;;;;;;;;7.20;99.90;;;;;;5051021;28;19916;-78
2022/09/29 02:28:06;;;;;;;;;;;7.30;99.90;;;;;;5049023;28;19920;-78
2022/09/29 02:30:32;;;;;;;;;;;7.30;99.90;;;;;;5061967;28;19924;-78
2022/09/29 02:32:58;;;;;;;;;;;7.20;99.90;;;;;;5079353;28;20526;-78
2022/09/29 02:35:27;;;;;;;;;;;7.20;99.90;;;;;;5076088;28;20062;-78
2022/09/29 02:37:53;;;;;;;;;;;7.20;99.90;;;;;;5079442;28;19943;-78
2022/09/29 02:40:36;;;;;;;;;;;7.10;99.90;;;;;;5081776;28;19916;-78
2022/09/29 02:43:14;;;;;;;;;;;7.00;99.90;;;;;;5073284;28;19921;-78
2022/09/29 02:45:43;;;;;;;;;;;7.10;99.90;;;;;;5081105;28;19940;-79
2022/09/29 02:48:17;;;;;;;;;;;6.90;99.90;;;;;;5076443;28;20368;-78
2022/09/29 02:51:09;;;;;;;;;;;7.00;99.90;;;;;;5071036;28;19999;-78
2022/09/29 02:53:40;;;;;;;;;;;6.90;99.90;;;;;;5077549;28;19941;-78
2022/09/29 02:56:06;;;;;;;;;;;7.00;99.90;;;;;;5073074;28;19990;-78
2022/09/29 02:58:36;;;;;;;;;;;6.90;99.90;;;;;;5076873;28;19916;-78
2022/09/29 03:01:02;;;;;;;;;;;7.00;99.90;;;;;;5076394;28;19916;-78
2022/09/29 03:03:28;;;;;;;;;;;7.00;99.90;;;;;;5063278;28;19925;-78
2022/09/29 03:05:53;;;;;;;;;;;7.10;99.90;;;;;;5053846;28;20354;-78
2022/09/29 03:08:19;;;;;;;;;;;7.10;99.90;;;;;;5060482;28;20386;-78
2022/09/29 03:10:44;;;;;;;;;;;7.10;99.90;;;;;;5063837;28;20446;-78
2022/09/29 03:13:10;;;;;;;;;;;6.90;99.90;;;;;;5054900;28;19920;-78
2022/09/29 03:15:35;;;;;;;;;;;6.60;99.90;;;;;;5051720;28;19940;-78
2022/09/29 03:18:03;;;;;;;;;;;6.70;99.90;;;;;;5060374;28;19917;-78
2022/09/29 03:20:28;;;;;;;;;;;6.80;99.90;;;;;;5059457;28;19920;-78
2022/09/29 03:22:55;;;;;;;;;;;7.00;99.90;;;;;;5053048;28;19920;-78
2022/09/29 03:25:22;;;;;;;;;;;7.00;99.90;;;;;;5061844;28;19913;-78
2022/09/29 03:27:49;;;;;;;;;;;7.00;99.90;;;;;;5056130;28;19920;-78
2022/09/29 03:30:14;;;;;;;;;;;7.10;99.90;;;;;;5051219;28;20058;-78
2022/09/29 03:32:41;;;;;;;;;;;7.10;99.90;;;;;;5066745;28;20003;-78
2022/09/29 03:35:07;;;;;;;;;;;7.20;99.90;;;;;;5069375;28;20381;-78
2022/09/29 03:37:32;;;;;;;;;;;7.20;99.90;;;;;;5069188;28;19927;-78
2022/09/29 03:39:58;;;;;;;;;;;7.40;99.90;;;;;;5069395;28;19920;-78
2022/09/29 03:42:24;;;;;;;;;;;7.30;99.90;;;;;;5066069;28;19920;-78
2022/09/29 03:44:49;;;;;;;;;;;7.50;99.90;;;;;;5067067;28;19927;-78
2022/09/29 03:47:15;;;;;;;;;;;7.40;99.90;;;;;;5064847;28;19943;-78
2022/09/29 03:49:40;;;;;;;;;;;7.40;99.90;;;;;;5066865;28;20702;-77
2022/09/29 03:52:06;;;;;;;;;;;7.20;99.90;;;;;;5066124;28;19952;-78
2022/09/29 03:54:31;;;;;;;;;;;7.00;99.90;;;;;;5066798;28;19917;-78
2022/09/29 03:56:57;;;;;;;;;;;7.00;99.90;;;;;;5067474;28;19920;-78
2022/09/29 03:59:22;;;;;;;;;;;7.10;99.90;;;;;;5069625;28;20003;-78
2022/09/29 04:01:48;;;;;;;;;;;7.00;99.90;;;;;;5068510;28;19946;-78
2022/09/29 04:04:14;;;;;;;;;;;6.90;99.90;;;;;;5072894;28;19952;-78
2022/09/29 04:06:39;;;;;;;;;;;7.00;99.90;;;;;;5074738;28;19924;-78
2022/09/29 04:09:05;;;;;;;;;;;7.10;99.90;;;;;;5084509;28;19920;-78
2022/09/29 04:11:30;;;;;;;;;;;7.20;99.90;;;;;;5077696;28;19970;-78
2022/09/29 04:13:56;;;;;;;;;;;7.30;99.90;;;;;;5071551;28;19921;-78
2022/09/29 04:16:21;;;;;;;;;;;7.30;99.90;;;;;;5086573;28;19982;-78
2022/09/29 04:18:47;;;;;;;;;;;7.40;99.90;;;;;;5081873;28;20007;-78
2022/09/29 04:21:12;;;;;;;;;;;7.40;99.90;;;;;;5076028;28;19940;-78
2022/09/29 04:23:38;;;;;;;;;;;7.40;99.90;;;;;;5089388;28;19930;-78
2022/09/29 04:26:03;;;;;;;;;;;7.30;99.90;;;;;;5081821;28;19927;-78
2022/09/29 04:28:30;;;;;;;;;;;7.30;99.90;;;;;;5074315;28;19941;-78
2022/09/29 04:30:55;;;;;;;;;;;7.40;99.90;;;;;;5075378;28;20420;-78
2022/09/29 04:33:21;;;;;;;;;;;7.50;99.90;;;;;;5081362;28;19995;-78
2022/09/29 04:35:46;;;;;;;;;;;7.50;99.90;;;;;;5076346;28;19921;-77
2022/09/29 04:38:12;;;;;;;;;;;7.40;99.90;;;;;;5085846;28;20573;-78
2022/09/29 04:40:37;;;;;;;;;;;7.50;99.90;;;;;;5078041;28;19924;-78
2022/09/29 04:43:03;;;;;;;;;;;7.60;99.90;;;;;;5071577;28;19962;-78
2022/09/29 04:45:29;;;;;;;;;;;7.50;99.90;;;;;;5081049;28;19916;-78
2022/09/29 04:47:54;;;;;;;;;;;7.50;99.90;;;;;;5082671;28;20437;-78
2022/09/29 04:50:21;;;;;;;;;;;7.50;99.90;;;;;;5078209;28;19920;-77
2022/09/29 04:52:46;;;;;;;;;;;7.50;99.90;;;;;;5085516;28;19920;-78
2022/09/29 04:55:12;;;;;;;;;;;7.60;99.90;;;;;;5084451;28;19927;-78
2022/09/29 04:57:38;;;;;;;;;;;7.60;99.90;;;;;;5078421;28;19912;-77
2022/09/29 05:00:04;;;;;;;;;;;7.50;99.90;;;;;;5078631;28;19935;-78
2022/09/29 05:02:30;;;;;;;;;;;7.50;99.90;;;;;;5058939;28;20001;-78
2022/09/29 05:04:55;;;;;;;;;;;7.50;99.90;;;;;;5057488;28;20060;-78
2022/09/29 05:07:21;;;;;;;;;;;7.50;99.90;;;;;;5059429;28;19917;-78
2022/09/29 05:09:46;;;;;;;;;;;7.40;99.90;;;;;;5066831;28;19912;-79
2022/09/29 05:12:12;;;;;;;;;;;7.50;99.90;;;;;;5057149;28;19923;-78
2022/09/29 05:14:38;;;;;;;;;;;7.50;99.90;;;;;;5059164;28;19991;-78
2022/09/29 05:17:03;;;;;;;;;;;7.50;99.90;;;;;;5062223;28;20008;-79
2022/09/29 05:19:30;;;;;;;;;;;7.60;99.90;;;;;;5059786;28;19916;-77
2022/09/29 05:21:57;;;;;;;;;;;7.70;99.90;;;;;;5056440;28;20388;-78
2022/09/29 05:24:23;;;;;;;;;;;7.70;99.90;;;;;;5061758;28;20402;-78
2022/09/29 05:26:48;;;;;;;;;;;7.60;99.90;;;;;;5056251;28;19916;-77
2022/09/29 05:29:14;;;;;;;;;;;7.60;99.90;;;;;;5058754;28;19912;-79
2022/09/29 05:31:39;;;;;;;;;;;7.60;99.90;;;;;;5062577;28;20297;-78
2022/09/29 05:34:05;;;;;;;;;;;7.60;99.90;;;;;;5059731;28;19920;-78
2022/09/29 05:36:30;;;;;;;;;;;7.60;99.90;;;;;;5056907;28;20015;-77
2022/09/29 05:38:56;;;;;;;;;;;7.60;99.90;;;;;;5063772;28;19917;-78
2022/09/29 05:41:22;;;;;;;;;;;7.60;99.90;;;;;;5060784;28;19918;-78
2022/09/29 05:43:48;;;;;;;;;;;7.70;99.90;;;;;;5051648;28;20010;-78
2022/09/29 05:46:14;;;;;;;;;;;7.70;99.90;;;;;;5060969;28;19934;-77
2022/09/29 05:48:40;;;;;;;;;;;7.70;99.90;;;;;;5057243;28;20417;-77
2022/09/29 05:51:07;;;;;;;;;;;7.40;99.90;;;;;;5058992;28;19963;-77
2022/09/29 05:53:32;;;;;;;;;;;7.30;99.90;;;;;;5065348;28;19955;-78
2022/09/29 05:55:58;;;;;;;;;;;7.20;99.90;;;;;;5055747;28;19952;-76
2022/09/29 05:58:24;;;;;;;;;;;7.20;99.90;;;;;;5050444;28;19917;-78
2022/09/29 06:00:49;;;;;;;;;;;7.30;99.90;;;;;;5063696;28;20290;-78
2022/09/29 06:03:15;;;;;;;;;;;7.40;99.90;;;;;;5059502;28;19925;-78
2022/09/29 06:05:40;;;;;;;;;;;7.40;99.90;;;;;;5053292;28;19913;-77
2022/09/29 06:08:06;;;;;;;;;;;7.50;99.90;;;;;;5067417;28;19989;-77
2022/09/29 06:10:32;;;;;;;;;;;7.50;99.90;;;;;;5089475;28;19923;-77
2022/09/29 06:12:58;;;;;;;;;;;7.50;99.90;;;;;;5056309;28;19917;-77
2022/09/29 06:15:24;;;;;;;;;;;7.60;99.90;;;;;;5051694;28;20294;-77
2022/09/29 06:17:59;;;;;;;;;;;7.50;99.90;;;;;;5059892;28;19921;-77
2022/09/29 06:20:26;;;;;;;;;;;7.80;99.90;;;;;;5044052;28;19928;-78
2022/09/29 06:22:55;;;;;;;;;;;7.90;99.90;;;;;;5065569;28;19923;-76
2022/09/29 06:25:21;;;;;;;;;;;7.90;99.90;;;;;;5059263;28;19924;-77
2022/09/29 06:27:46;;;;;;;;;;;8.00;99.90;;;;;;5055532;28;19964;-78
2022/09/29 06:30:12;;;;;;;;;;;8.00;99.90;;;;;;5063734;28;19967;-77
2022/09/29 06:32:38;;;;;;;;;;;8.00;99.90;;;;;;5061359;28;19916;-78
2022/09/29 06:37:48;;;;;;;;;;;8.50;99.90;;;;;;5063455;28;19965;-78
2022/09/29 06:40:13;;;;;;;;;;;8.50;99.90;;;;;;5061319;28;19917;-77
2022/09/29 06:42:39;;;;;;;;;;;8.70;99.90;;;;;;5054798;28;19924;-77
2022/09/29 06:45:04;;;;;;;;;;;8.60;99.90;;;;;;5059171;28;19965;-78
2022/09/29 06:47:30;;;;;;;;;;;8.70;99.90;;;;;;5059401;28;19924;-78
2022/09/29 06:49:57;;;;;;;;;;;8.90;99.90;;;;;;5054920;28;19921;-78
2022/09/29 06:52:22;;;;;;;;;;;9.00;99.90;;;;;;5058450;28;19944;-77
2022/09/29 06:54:48;;;;;;;;;;;9.00;99.90;;;;;;5057436;28;19917;-78
2022/09/29 06:57:13;;;;;;;;;;;9.10;99.90;;;;;;5054779;28;20358;-77
2022/09/29 06:59:39;;;;;;;;;;;9.30;99.90;;;;;;5056934;28;20411;-78
2022/09/29 07:02:04;;;;;;;;;;;9.30;99.90;;;;;;5060272;28;19921;-78
2022/09/29 07:04:30;;;;;;;;;;;9.30;99.90;;;;;;5055849;28;19924;-78
2022/09/29 07:06:55;;;;;;;;;;;9.40;99.90;;;;;;5058648;28;19927;-77
2022/09/29 07:09:22;;;;;;;;;;;9.30;99.90;;;;;;5061940;28;20019;-78
2022/09/29 07:11:48;;;;;;;;;;;9.40;99.90;;;;;;5061031;28;19926;-77
2022/09/29 07:14:14;;;;;;;;;;;9.40;99.90;;;;;;5057738;28;20003;-77
2022/09/29 07:16:40;;;;;;;;;;;9.30;99.90;;;;;;5049589;28;19925;-78
2022/09/29 07:19:06;;;;;;;;;;;9.40;99.90;;;;;;5053640;28;19999;-79
2022/09/29 07:21:31;;;;;;;;;;;9.50;99.90;;;;;;5053363;28;19943;-78
2022/09/29 07:23:57;;;;;;;;;;;9.60;99.90;;;;;;5061039;28;19925;-79
2022/09/29 07:26:22;;;;;;;;;;;9.70;99.90;;;;;;5050989;28;19917;-78
2022/09/29 07:28:48;;;;;;;;;;;9.80;99.90;;;;;;5054321;28;19917;-78
2022/09/29 07:31:18;;;;;;;;;;;9.70;99.90;;;;;;5060772;28;20450;-78
2022/09/29 07:33:44;;;;;;;;;;;9.70;99.90;;;;;;5053609;28;19966;-78
2022/09/29 07:36:10;;;;;;;;;;;9.90;99.90;;;;;;5057330;28;19921;-78
2022/09/29 07:38:35;;;;;;;;;;;9.80;99.90;;;;;;5063881;28;20302;-77
2022/09/29 07:41:02;;;;;;;;;;;9.60;99.90;;;;;;5051026;28;19913;-78
2022/09/29 07:43:28;;;;;;;;;;;9.50;99.90;;;;;;5053833;28;19979;-78
2022/09/29 07:45:54;;;;;;;;;;;9.60;99.90;;;;;;5051776;28;20031;-77
2022/09/29 07:48:19;;;;;;;;;;;9.70;99.90;;;;;;5054080;28;20023;-77
2022/09/29 07:50:45;;;;;;;;;;;9.60;99.90;;;;;;5051692;28;20655;-78
2022/09/29 07:53:11;;;;;;;;;;;9.50;99.90;;;;;;5062267;28;19924;-78
2022/09/29 07:55:37;;;;;;;;;;;9.60;99.90;;;;;;5072357;28;19927;-78
2022/09/29 07:58:03;;;;;;;;;;;9.50;99.90;;;;;;5056674;28;19917;-79
2022/09/29 08:00:30;;;;;;;;;;;9.60;99.90;;;;;;5063860;28;19917;-78
2022/09/29 08:03:02;;;;;;;;;;;9.50;99.90;;;;;;5047592;28;20356;-78
2022/09/29 08:05:32;;;;;;;;;;;9.70;99.90;;;;;;5056282;28;19913;-78
2022/09/29 08:08:01;;;;;;;;;;;9.80;99.90;;;;;;5057956;28;19916;-79
2022/09/29 08:10:27;;;;;;;;;;;9.80;99.90;;;;;;5057374;28;19923;-77
2022/09/29 08:12:54;;;;;;;;;;;9.80;99.90;;;;;;5051467;28;19916;-78
2022/09/29 08:15:19;;;;;;;;;;;9.90;99.90;;;;;;5058333;28;19967;-77
2022/09/29 08:17:45;;;;;;;;;;;10.00;99.90;;;;;;5058048;28;19920;-78
2022/09/29 08:20:11;;;;;;;;;;;9.90;99.90;;;;;;5052764;28;20314;-79
2022/09/29 08:22:37;;;;;;;;;;;9.80;99.90;;;;;;5058509;28;19932;-77
2022/09/29 08:25:02;;;;;;;;;;;9.80;99.90;;;;;;5056004;28;19921;-78
2022/09/29 08:27:28;;;;;;;;;;;10.10;99.90;;;;;;5052526;28;19913;-79
2022/09/29 08:29:53;;;;;;;;;;;10.20;99.90;;;;;;5051877;28;19939;-78
2022/09/29 08:32:19;;;;;;;;;;;10.60;99.90;;;;;;5059178;28;19967;-78
2022/09/29 08:34:44;;;;;;;;;;;10.70;99.90;;;;;;5051038;28;19949;-77
2022/09/29 08:37:10;;;;;;;;;;;10.70;99.90;;;;;;5056245;28;20407;-79
2022/09/29 08:39:36;;;;;;;;;;;10.50;99.90;;;;;;5058941;28;19921;-78
2022/09/29 08:42:15;;;;;;;;;;;10.90;99.90;;;;;;5051702;28;19917;-79
2022/09/29 08:44:46;;;;;;;;;;;10.60;99.90;;;;;;5046471;28;19925;-77
2022/09/29 08:47:12;;;;;;;;;;;10.80;99.90;;;;;;5058934;28;19948;-79
2022/09/29 08:49:58;;;;;;;;;;;10.80;99.90;;;;;;5056241;28;19967;-77
2022/09/29 08:52:27;;;;;;;;;;;11.10;99.90;;;;;;5060018;28;19917;-82
2022/09/29 08:55:12;;;;;;;;;;;11.40;99.90;;;;;;5055325;28;19913;-81
2022/09/29 08:57:37;;;;;;;;;;;11.00;99.90;;;;;;5052427;28;19959;-81
2022/09/29 09:00:06;;;;;;;;;;;10.80;99.90;;;;;;5055748;28;19971;-80
2022/09/29 09:02:42;;;;;;;;;;;11.00;99.90;;;;;;5050854;28;19952;-81
2022/09/29 09:05:23;;;;;;;;;;;10.70;99.90;;;;;;5056420;28;19917;-80
2022/09/29 09:07:52;;;;;;;;;;;10.90;99.90;;;;;;5043766;28;20499;-81
2022/09/29 09:10:25;;;;;;;;;;;10.70;99.90;;;;;;5054547;28;19959;-81
2022/09/29 09:12:53;;;;;;;;;;;10.70;99.90;;;;;;5057398;28;20337;-80
2022/09/29 09:15:28;;;;;;;;;;;10.60;99.90;;;;;;5054227;28;19912;-81
2022/09/29 09:18:02;;;;;;;;;;;10.80;99.90;;;;;;5051694;28;19984;-82
2022/09/29 09:20:31;;;;;;;;;;;10.80;99.90;;;;;;5056272;28;19917;-81
2022/09/29 09:23:03;;;;;;;;;;;10.80;99.90;;;;;;5065812;28;19925;-81
2022/09/29 09:25:37;;;;;;;;;;;10.70;99.90;;;;;;5052688;28;19917;-82
2022/09/29 09:28:12;;;;;;;;;;;11.00;99.90;;;;;;5047712;28;19916;-81
2022/09/29 09:30:41;;;;;;;;;;;11.20;99.90;;;;;;5054275;28;19921;-82
2022/09/29 09:33:11;;;;;;;;;;;11.30;99.90;;;;;;5052528;28;19913;-81
2022/09/29 09:35:36;;;;;;;;;;;11.20;99.90;;;;;;5056525;28;19921;-80
2022/09/29 09:38:05;;;;;;;;;;;11.20;99.90;;;;;;5063118;28;19995;-80
2022/09/29 09:40:42;;;;;;;;;;;11.10;99.90;;;;;;5059375;28;20472;-80
2022/09/29 09:43:12;;;;;;;;;;;11.10;99.90;;;;;;5087219;28;20654;-80
2022/09/29 09:45:47;;;;;;;;;;;11.60;99.90;;;;;;5039568;28;19917;-80
2022/09/29 09:48:16;;;;;;;;;;;11.70;99.90;;;;;;5059039;28;20578;-80
2022/09/29 09:50:42;;;;;;;;;;;12.00;99.90;;;;;;5058877;28;19916;-80
2022/09/29 09:53:21;;;;;;;;;;;11.70;99.90;;;;;;5061766;28;19962;-80
2022/09/29 09:55:52;;;;;;;;;;;11.80;99.90;;;;;;5056394;28;19917;-80
2022/09/29 09:58:17;;;;;;;;;;;11.50;99.90;;;;;;5052513;28;19913;-80
2022/09/29 10:00:43;;;;;;;;;;;11.80;99.90;;;;;;5052620;28;19923;-81
2022/09/29 10:03:09;;;;;;;;;;;12.20;99.90;;;;;;5052998;28;19951;-80
2022/09/29 10:05:39;;;;;;;;;;;11.60;99.90;;;;;;5056647;28;20528;-81
2022/09/29 10:08:24;;;;;;;;;;;11.90;99.90;;;;;;5061828;28;20406;-79
2022/09/29 10:10:50;;;;;;;;;;;12.30;99.90;;;;;;5056181;28;20314;-81
2022/09/29 10:13:16;;;;;;;;;;;12.30;99.90;;;;;;5058396;28;19935;-82
2022/09/29 10:16:00;;;;;;;;;;;12.20;99.90;;;;;;5059547;28;19984;-81
2022/09/29 10:18:28;;;;;;;;;;;12.80;99.90;;;;;;5057620;28;19916;-80
2022/09/29 10:20:55;;;;;;;;;;;12.40;99.90;;;;;;5047198;28;19930;-80
2022/09/29 10:23:25;;;;;;;;;;;12.30;99.90;;;;;;5058388;28;19916;-81
2022/09/29 10:26:03;;;;;;;;;;;12.30;99.90;;;;;;5054964;28;19927;-80
2022/09/29 10:28:36;;;;;;;;;;;12.00;99.90;;;;;;5045401;28;19919;-82
2022/09/29 10:31:02;;;;;;;;;;;12.30;99.90;;;;;;5056235;28;19921;-81
2022/09/29 10:33:27;;;;;;;;;;;12.80;99.90;;;;;;5056375;28;20306;-81
2022/09/29 10:36:13;;;;;;;;;;;12.70;99.90;;;;;;5056651;28;20267;-81
2022/09/29 10:38:44;;;;;;;;;;;12.50;99.90;;;;;;5060088;28;19913;-80
2022/09/29 10:41:10;;;;;;;;;;;12.40;99.90;;;;;;5074778;28;19920;-82
2022/09/29 10:43:36;;;;;;;;;;;12.50;99.90;;;;;;5062343;28;19933;-81
2022/09/29 10:46:02;;;;;;;;;;;12.40;99.90;;;;;;5058668;28;19923;-81
2022/09/29 10:48:28;;;;;;;;;;;11.80;99.90;;;;;;5057954;28;19916;-80
2022/09/29 10:50:58;;;;;;;;;;;12.20;99.90;;;;;;5050173;28;19920;-80
2022/09/29 10:53:37;;;;;;;;;;;12.60;99.90;;;;;;5058954;28;19922;-81
2022/09/29 10:56:10;;;;;;;;;;;13.10;99.90;;;;;;5047352;28;19928;-81
2022/09/29 10:58:39;;;;;;;;;;;12.80;99.90;;;;;;5054955;28;19924;-81
2022/09/29 11:01:07;;;;;;;;;;;13.10;99.90;;;;;;5061548;28;19983;-81
2022/09/29 11:03:34;;;;;;;;;;;12.70;99.90;;;;;;5052715;28;19923;-83
2022/09/29 11:06:10;;;;;;;;;;;12.70;99.90;;;;;;5052207;28;20406;-82
2022/09/29 11:08:55;;;;;;;;;;;12.90;99.90;;;;;;5056710;28;19925;-83
2022/09/29 11:11:27;;;;;;;;;;;12.90;99.90;;;;;;5050577;28;19943;-82
2022/09/29 11:13:54;;;;;;;;;;;12.70;99.90;;;;;;5054363;28;20545;-82
2022/09/29 11:16:23;;;;;;;;;;;12.10;99.90;;;;;;5055440;28;19921;-81
2022/09/29 11:18:51;;;;;;;;;;;12.50;99.90;;;;;;5051058;28;20366;-82
2022/09/29 11:21:23;;;;;;;;;;;12.80;99.90;;;;;;5076729;28;19921;-80
2022/09/29 11:23:58;;;;;;;;;;;12.60;99.90;;;;;;5044415;28;19966;-81
2022/09/29 11:26:33;;;;;;;;;;;12.50;99.90;;;;;;5050725;28;20367;-81
2022/09/29 11:29:18;;;;;;;;;;;12.50;99.90;;;;;;5051677;28;19917;-81
2022/09/29 11:32:03;;;;;;;;;;;11.70;99.90;;;;;;5053468;28;19982;-82
2022/09/29 11:34:36;;;;;;;;;;;12.60;99.90;;;;;;5055258;28;19917;-82
2022/09/29 11:37:11;;;;;;;;;;;13.10;99.90;;;;;;5062869;28;19936;-81
2022/09/29 11:39:44;;;;;;;;;;;13.20;99.90;;;;;;5053535;28;20518;-81
2022/09/29 11:42:12;;;;;;;;;;;12.40;99.90;;;;;;5049763;28;20394;-81
2022/09/29 11:44:39;;;;;;;;;;;12.60;99.90;;;;;;5053648;28;20221;-80
2022/09/29 11:47:11;;;;;;;;;;;12.30;99.90;;;;;;5056764;28;20393;-81
2022/09/29 11:49:46;;;;;;;;;;;12.50;99.90;;;;;;5052621;28;19916;-81
2022/09/29 11:52:21;;;;;;;;;;;12.90;99.90;;;;;;5063646;28;20416;-81
2022/09/29 11:55:05;;;;;;;;;;;12.30;99.90;;;;;;5055609;28;19996;-82
2022/09/29 11:57:45;;;;;;;;;;;12.10;99.90;;;;;;5052035;28;19960;-83
2022/09/29 12:00:15;;;;;;;;;;;12.50;99.90;;;;;;5058278;28;20394;-81
2022/09/29 12:02:41;;;;;;;;;;;12.30;99.90;;;;;;5055975;28;19924;-82
2022/09/29 12:05:19;;;;;;;;;;;12.50;99.90;;;;;;5057820;28;20651;-82
2022/09/29 12:07:57;;;;;;;;;;;12.60;99.90;;;;;;5058517;28;19913;-81
2022/09/29 12:10:22;;;;;;;;;;;12.10;99.90;;;;;;5043480;28;19913;-82
2022/09/29 12:12:54;;;;;;;;;;;12.30;99.90;;;;;;5045072;28;19920;-83
2022/09/29 12:15:20;;;;;;;;;;;12.20;99.90;;;;;;5052192;28;19924;-83
2022/09/29 12:17:55;;;;;;;;;;;12.20;99.90;;;;;;5057208;28;19928;-80
2022/09/29 12:20:24;;;;;;;;;;;12.40;99.90;;;;;;5053915;28;19912;-83
2022/09/29 12:22:51;;;;;;;;;;;12.10;99.90;;;;;;5052889;28;20409;-83
2022/09/29 12:25:18;;;;;;;;;;;12.30;99.90;;;;;;5051278;28;19925;-83
2022/09/29 12:27:45;;;;;;;;;;;12.40;99.90;;;;;;5057377;28;19928;-83
2022/09/29 12:30:23;;;;;;;;;;;12.60;99.90;;;;;;5047254;28;19981;-83
2022/09/29 12:32:51;;;;;;;;;;;12.90;99.90;;;;;;5050913;28;19917;-83
2022/09/29 12:35:32;;;;;;;;;;;12.90;99.90;;;;;;5053935;28;19912;-83
2022/09/29 12:38:34;;;;;;;;;;;12.80;99.90;;;;;;5060528;28;20004;-84
2022/09/29 12:41:22;;;;;;;;;;;12.60;99.90;;;;;;5019232;28;19917;-82
2022/09/29 12:43:53;;;;;;;;;;;12.60;99.90;;;;;;5058004;28;19925;-83
2022/09/29 12:46:24;;;;;;;;;;;12.70;99.90;;;;;;5056622;28;20370;-83
2022/09/29 12:49:05;;;;;;;;;;;12.70;99.90;;;;;;5055270;28;19913;-82
2022/09/29 12:51:47;;;;;;;;;;;12.20;99.90;;;;;;5060914;28;19962;-83
2022/09/29 12:54:16;;;;;;;;;;;12.30;99.90;;;;;;5056350;28;19984;-83
2022/09/29 12:56:51;;;;;;;;;;;12.50;99.90;;;;;;5059746;28;19966;-88
2022/09/29 12:59:23;;;;;;;;;;;12.90;99.90;;;;;;5063188;28;19928;-90
2022/09/29 13:01:51;;;;;;;;;;;13.20;99.90;;;;;;5059333;28;19927;-82
2022/09/29 13:04:36;;;;;;;;;;;13.30;99.90;;;;;;5059298;28;19929;-83
2022/09/29 13:07:17;;;;;;;;;;;12.60;99.90;;;;;;5064098;28;19990;-83
2022/09/29 13:09:42;;;;;;;;;;;12.90;99.90;;;;;;5057921;28;20082;-82
2022/09/29 13:12:23;;;;;;;;;;;13.20;99.90;;;;;;5047277;28;19999;-83
2022/09/29 13:14:51;;;;;;;;;;;13.10;99.90;;;;;;5066082;28;19955;-81
2022/09/29 13:17:35;;;;;;;;;;;12.90;93.00;;;;;;5063280;28;19959;-82
2022/09/29 13:20:10;;;;;;;;;;;12.90;95.60;;;;;;5067444;28;19967;-81
2022/09/29 13:22:55;;;;;;;;;;;12.90;92.70;;;;;;5064481;28;19912;-81
2022/09/29 13:25:25;;;;;;;;;;;13.30;88.50;;;;;;5058891;28;20007;-80
2022/09/29 13:27:51;;;;;;;;;;;13.60;80.00;;;;;;5057290;28;19985;-81
2022/09/29 13:30:18;;;;;;;;;;;13.30;83.40;;;;;;5058730;28;19970;-81
2022/09/29 13:32:45;;;;;;;;;;;13.20;82.80;;;;;;5054462;28;19921;-81
2022/09/29 13:35:16;;;;;;;;;;;13.60;79.00;;;;;;5056957;28;20075;-81
2022/09/29 13:37:44;;;;;;;;;;;13.40;78.80;;;;;;5064058;28;19920;-80
2022/09/29 13:40:17;;;;;;;;;;;13.40;80.60;;;;;;5051940;28;20398;-81
2022/09/29 13:42:43;;;;;;;;;;;13.30;84.40;;;;;;5051809;28;19921;-80
2022/09/29 13:45:14;;;;;;;;;;;14.20;79.90;;;;;;5056208;28;19913;-81
2022/09/29 13:47:44;;;;;;;;;;;14.20;81.40;;;;;;5054934;28;19924;-81
2022/09/29 13:50:28;;;;;;;;;;;16.10;74.30;;;;;;5057678;28;19916;-81
2022/09/29 13:53:11;;;;;;;;;;;19.30;66.20;;;;;;5058939;28;19921;-81
2022/09/29 13:55:50;;;;;;;;;;;20.00;61.80;;;;;;5054470;28;19913;-81
2022/09/29 13:58:23;;;;;;;;;;;18.80;58.70;;;;;;5061456;28;19921;-81
2022/09/29 14:00:49;;;;;;;;;;;16.50;64.00;;;;;;5058442;28;19917;-81
2022/09/29 14:03:23;;;;;;;;;;;14.90;71.70;;;;;;5070397;28;19928;-81
2022/09/29 14:05:53;;;;;;;;;;;14.60;72.50;;;;;;5057665;28;20035;-81
2022/09/29 14:08:21;;;;;;;;;;;14.70;69.30;;;;;;5060548;28;19924;-81
2022/09/29 14:10:50;;;;;;;;;;;14.70;70.60;;;;;;5055064;28;19925;-81
2022/09/29 14:13:23;;;;;;;;;;;13.80;74.50;;;;;;5057057;28;19921;-81
2022/09/29 14:15:51;;;;;;;;;;;13.90;73.40;;;;;;5057639;28;19913;-81
2022/09/29 14:18:35;;;;;;;;;;;14.10;72.70;;;;;;5055237;28;19920;-80
2022/09/29 14:21:05;;;;;;;;;;;13.60;71.80;;;;;;5052261;28;19913;-82
2022/09/29 14:23:51;;;;;;;;;;;14.50;71.20;;;;;;5059426;28;19990;-83
2022/09/29 14:26:35;;;;;;;;;;;14.70;70.60;;;;;;5052156;28;19921;-82
2022/09/29 14:29:02;;;;;;;;;;;14.20;71.20;;;;;;5062345;28;19919;-84
2022/09/29 14:31:29;;;;;;;;;;;14.10;71.80;;;;;;5056044;28;19979;-82
2022/09/29 14:33:55;;;;;;;;;;;13.80;73.10;;;;;;5051645;28;20033;-82
2022/09/29 14:36:22;;;;;;;;;;;13.50;75.40;;;;;;5060782;28;19921;-79
2022/09/29 14:38:54;;;;;;;;;;;13.40;75.10;;;;;;5056505;28;20003;-80